Time;durP1;ratioP1;P1;durP2;ratioP2;P2;SDS_P1;SDS_P2;PMS_P1;PMS_P2;Temp;Humidity;BMP_temperature;BMP_pressure;BME280_temperature;BME280_humidity;BME280_pressure;Samples;Min_cycle;Max_cycle;Signal;HPM_P1;HPM_P2
2023/04/24 00:00:14;;;;;;;8.85;5.68;;;;;;;;;;4995119;28;20081;-74
2023/04/24 00:02:40;;;;;;;7.18;5.90;;;;;;;;;;4977636;28;20025;-76
2023/04/24 00:05:07;;;;;;;7.75;6.30;;;;;;;;;;4994991;28;20041;-75
2023/04/24 00:07:33;;;;;;;7.68;5.90;;;;;;;;;;5021377;23;20026;-71
2023/04/24 00:09:59;;;;;;;9.27;6.43;;;;;;;;;;4994132;28;20085;-72
2023/04/24 00:12:26;;;;;;;6.90;5.78;;;;;;;;;;4977124;28;20018;-72
2023/04/24 00:14:52;;;;;;;6.80;6.00;;;;;;;;;;4995141;28;20018;-72
2023/04/24 00:17:20;;;;;;;8.95;6.43;;;;;;;;;;4984137;28;20031;-73
2023/04/24 00:19:46;;;;;;;9.43;7.05;;;;;;;;;;4989109;28;20106;-72
2023/04/24 00:22:13;;;;;;;9.48;7.72;;;;;;;;;;4994568;28;20034;-73
2023/04/24 00:24:39;;;;;;;6.53;5.40;;;;;;;;;;4971920;28;20374;-73
2023/04/24 00:27:05;;;;;;;8.30;5.80;;;;;;;;;;4983802;28;20452;-72
2023/04/24 00:29:31;;;;;;;8.10;5.75;;;;;;;;;;4994660;28;20053;-72
2023/04/24 00:31:57;;;;;;;8.35;5.90;;;;;;;;;;4995582;28;20015;-72
2023/04/24 00:34:23;;;;;;;5.85;5.22;;;;;;;;;;4978651;28;20027;-72
2023/04/24 00:36:52;;;;;;;9.90;5.95;;;;;;;;;;4994859;28;20369;-72
2023/04/24 00:39:19;;;;;;;8.02;5.55;;;;;;;;;;4994371;28;20030;-72
2023/04/24 00:41:46;;;;;;;8.95;5.90;;;;;;;;;;4980759;28;20023;-73
2023/04/24 00:44:12;;;;;;;6.22;5.03;;;;;;;;;;4991230;28;20045;-73
2023/04/24 00:46:38;;;;;;;7.90;5.72;;;;;;;;;;4979826;28;20050;-73
2023/04/24 00:49:05;;;;;;;6.63;5.13;;;;;;;;;;4993956;28;20019;-72
2023/04/24 00:51:32;;;;;;;9.85;6.05;;;;;;;;;;4994071;28;20025;-72
2023/04/24 00:53:58;;;;;;;8.85;5.80;;;;;;;;;;4960841;28;20050;-73
2023/04/24 00:56:24;;;;;;;8.07;5.43;;;;;;;;;;4973151;28;20415;-72
2023/04/24 00:58:51;;;;;;;6.03;5.43;;;;;;;;;;4981043;28;20101;-73
2023/04/24 01:01:18;;;;;;;7.97;5.90;;;;;;;;;;4993992;28;20026;-73
2023/04/24 01:03:44;;;;;;;6.88;5.88;;;;;;;;;;4976380;28;20046;-74
2023/04/24 01:06:10;;;;;;;9.02;6.07;;;;;;;;;;4977606;28;20063;-73
2023/04/24 01:08:37;;;;;;;6.60;5.82;;;;;;;;;;4993409;28;20035;-72
2023/04/24 01:11:04;;;;;;;7.65;6.00;;;;;;;;;;4993769;28;20027;-72
2023/04/24 01:13:31;;;;;;;7.15;5.53;;;;;;;;;;4993830;28;20053;-73
2023/04/24 01:15:58;;;;;;;7.20;5.25;;;;;;;;;;4993764;28;20384;-73
2023/04/24 01:18:24;;;;;;;7.97;5.72;;;;;;;;;;4977249;28;20025;-72
2023/04/24 01:20:51;;;;;;;8.05;6.03;;;;;;;;;;4993837;28;20022;-72
2023/04/24 01:23:17;;;;;;;7.47;6.03;;;;;;;;;;4993706;28;20049;-72
2023/04/24 01:25:44;;;;;;;8.98;5.85;;;;;;;;;;4962387;28;20027;-72
2023/04/24 01:28:10;;;;;;;6.45;5.85;;;;;;;;;;4989981;28;20030;-72
2023/04/24 01:30:36;;;;;;;6.55;5.93;;;;;;;;;;4978202;28;20030;-72
2023/04/24 01:33:03;;;;;;;7.00;5.22;;;;;;;;;;4993295;28;20034;-73
2023/04/24 01:35:29;;;;;;;7.35;5.57;;;;;;;;;;4993429;28;20030;-72
2023/04/24 01:37:55;;;;;;;9.43;6.13;;;;;;;;;;4977506;28;20031;-72
2023/04/24 01:40:21;;;;;;;7.30;5.18;;;;;;;;;;4990088;28;20037;-72
2023/04/24 01:42:47;;;;;;;7.45;5.35;;;;;;;;;;4980113;28;20026;-72
2023/04/24 01:45:14;;;;;;;7.43;5.13;;;;;;;;;;4993188;28;20026;-72
2023/04/24 01:47:40;;;;;;;8.82;6.25;;;;;;;;;;4975085;28;20050;-72
2023/04/24 01:50:06;;;;;;;7.78;5.97;;;;;;;;;;4976948;28;20054;-72
2023/04/24 01:52:33;;;;;;;7.28;5.18;;;;;;;;;;4992835;28;20030;-72
2023/04/24 01:55:02;;;;;;;8.70;6.07;;;;;;;;;;4993224;28;20025;-72
2023/04/24 01:57:30;;;;;;;8.38;5.68;;;;;;;;;;4981486;28;20106;-72
2023/04/24 01:59:56;;;;;;;8.93;6.43;;;;;;;;;;4988917;28;20385;-73
2023/04/24 02:02:23;;;;;;;9.40;5.85;;;;;;;;;;4992705;28;20050;-72
2023/04/24 02:04:50;;;;;;;9.23;5.53;;;;;;;;;;4968656;28;20025;-73
2023/04/24 02:07:16;;;;;;;8.63;5.30;;;;;;;;;;4983072;28;20496;-73
2023/04/24 02:09:42;;;;;;;8.80;5.68;;;;;;;;;;4992515;28;20527;-73
2023/04/24 02:12:08;;;;;;;11.10;5.57;;;;;;;;;;4975058;28;20029;-72
2023/04/24 02:14:34;;;;;;;6.78;5.10;;;;;;;;;;4992457;28;20473;-73
2023/04/24 02:17:00;;;;;;;8.00;6.15;;;;;;;;;;4984435;28;20023;-73
2023/04/24 02:19:26;;;;;;;6.93;5.57;;;;;;;;;;4967053;28;20092;-74
2023/04/24 02:21:52;;;;;;;8.15;5.13;;;;;;;;;;4975119;28;20034;-73
2023/04/24 02:24:18;;;;;;;5.70;4.80;;;;;;;;;;4992306;28;20034;-73
2023/04/24 02:26:44;;;;;;;6.63;4.97;;;;;;;;;;4992393;28;20026;-73
2023/04/24 02:29:11;;;;;;;6.25;5.13;;;;;;;;;;4982676;28;20554;-72
2023/04/24 02:31:37;;;;;;;5.72;4.85;;;;;;;;;;4985922;28;20030;-73
2023/04/24 02:34:03;;;;;;;8.88;5.35;;;;;;;;;;4992239;28;20034;-73
2023/04/24 02:36:30;;;;;;;8.10;5.07;;;;;;;;;;4988548;28;20026;-73
2023/04/24 02:38:56;;;;;;;6.72;5.32;;;;;;;;;;4980932;28;20054;-74
2023/04/24 02:41:22;;;;;;;7.10;5.10;;;;;;;;;;4993447;28;20030;-74
2023/04/24 02:43:48;;;;;;;5.22;4.32;;;;;;;;;;4992654;28;20030;-73
2023/04/24 02:46:14;;;;;;;6.45;5.13;;;;;;;;;;4958563;28;20027;-73
2023/04/24 02:48:40;;;;;;;5.95;4.80;;;;;;;;;;4991923;28;20018;-73
2023/04/24 02:51:06;;;;;;;5.50;4.72;;;;;;;;;;4991983;28;20031;-73
2023/04/24 02:53:32;;;;;;;6.35;4.47;;;;;;;;;;4979853;28;20046;-73
2023/04/24 02:55:58;;;;;;;5.30;4.72;;;;;;;;;;4971024;28;20404;-73
2023/04/24 02:58:25;;;;;;;7.43;5.00;;;;;;;;;;4974066;28;20046;-73
2023/04/24 03:00:54;;;;;;;6.53;4.70;;;;;;;;;;4985219;28;20106;-73
2023/04/24 03:03:20;;;;;;;6.35;4.85;;;;;;;;;;4983423;28;20026;-73
2023/04/24 03:05:46;;;;;;;5.63;4.93;;;;;;;;;;4992088;28;20041;-73
2023/04/24 03:08:14;;;;;;;5.32;4.03;;;;;;;;;;4991526;28;20077;-73
2023/04/24 03:10:40;;;;;;;6.20;3.92;;;;;;;;;;4991853;28;20022;-73
2023/04/24 03:13:06;;;;;;;4.30;3.90;;;;;;;;;;4974451;28;20031;-73
2023/04/24 03:15:32;;;;;;;5.57;4.40;;;;;;;;;;4974586;28;20037;-73
2023/04/24 03:17:58;;;;;;;5.30;4.38;;;;;;;;;;4976065;28;20031;-74
2023/04/24 03:20:24;;;;;;;5.72;3.75;;;;;;;;;;4988621;28;20027;-73
2023/04/24 03:22:50;;;;;;;5.95;3.78;;;;;;;;;;4979099;28;20022;-73
2023/04/24 03:25:16;;;;;;;4.50;3.58;;;;;;;;;;4991953;28;20023;-73
2023/04/24 03:27:42;;;;;;;3.58;3.20;;;;;;;;;;4991248;28;20085;-73
2023/04/24 03:30:08;;;;;;;5.57;3.60;;;;;;;;;;4959611;28;20023;-73
2023/04/24 03:32:34;;;;;;;5.13;4.25;;;;;;;;;;4993257;28;20097;-73
2023/04/24 03:35:00;;;;;;;4.43;3.58;;;;;;;;;;4991963;28;20456;-73
2023/04/24 03:37:26;;;;;;;6.38;3.72;;;;;;;;;;4996034;28;20045;-73
2023/04/24 03:39:53;;;;;;;6.07;4.15;;;;;;;;;;4991590;28;20109;-73
2023/04/24 03:42:19;;;;;;;4.60;3.53;;;;;;;;;;4975331;28;20038;-73
2023/04/24 03:44:45;;;;;;;3.95;3.40;;;;;;;;;;4974158;28;20455;-72
2023/04/24 03:47:11;;;;;;;4.70;3.30;;;;;;;;;;4991283;28;20105;-72
2023/04/24 03:49:37;;;;;;;4.95;2.85;;;;;;;;;;4978633;28;20049;-72
2023/04/24 03:52:03;;;;;;;2.78;2.20;;;;;;;;;;4970672;28;20101;-72
2023/04/24 03:54:29;;;;;;;3.70;2.08;;;;;;;;;;4977431;28;20014;-72
2023/04/24 03:56:55;;;;;;;3.72;2.45;;;;;;;;;;4995002;28;20030;-72
2023/04/24 03:59:21;;;;;;;5.65;2.47;;;;;;;;;;4994896;28;20152;-72
2023/04/24 04:01:47;;;;;;;4.13;2.70;;;;;;;;;;4980943;28;20485;-72
2023/04/24 04:04:13;;;;;;;4.60;2.30;;;;;;;;;;4991488;28;20022;-72
2023/04/24 04:06:39;;;;;;;2.63;2.08;;;;;;;;;;4980505;28;20022;-72
2023/04/24 04:09:05;;;;;;;3.38;1.80;;;;;;;;;;4994574;28;20027;-73
2023/04/24 04:11:31;;;;;;;2.60;1.80;;;;;;;;;;4994918;28;20015;-72
2023/04/24 04:13:57;;;;;;;2.80;2.10;;;;;;;;;;4994765;28;20392;-72
2023/04/24 04:16:24;;;;;;;1.92;1.63;;;;;;;;;;4994635;28;20026;-72
2023/04/24 04:18:50;;;;;;;5.30;1.50;;;;;;;;;;4994298;28;20026;-72
2023/04/24 04:21:16;;;;;;;5.28;1.90;;;;;;;;;;4984594;28;20062;-72
2023/04/24 04:23:42;;;;;;;3.05;1.42;;;;;;;;;;4988766;28;20053;-72
2023/04/24 04:26:08;;;;;;;1.90;1.17;;;;;;;;;;4994459;28;20110;-72
2023/04/24 04:28:34;;;;;;;6.35;1.25;;;;;;;;;;4989899;28;20452;-73
2023/04/24 04:31:00;;;;;;;2.63;1.10;;;;;;;;;;4983557;28;20026;-72
2023/04/24 04:33:27;;;;;;;4.28;1.13;;;;;;;;;;4976904;28;20037;-72
2023/04/24 04:35:53;;;;;;;1.63;1.17;;;;;;;;;;4994437;28;20033;-72
2023/04/24 04:38:20;;;;;;;3.53;1.13;;;;;;;;;;4977822;28;20038;-72
2023/04/24 04:40:46;;;;;;;2.75;1.65;;;;;;;;;;4994179;28;20057;-71
2023/04/24 04:43:15;;;;;;;1.85;0.90;;;;;;;;;;4994329;28;20050;-73
2023/04/24 04:45:43;;;;;;;1.42;1.10;;;;;;;;;;4980704;28;20417;-75
2023/04/24 04:48:09;;;;;;;1.40;0.90;;;;;;;;;;4990576;28;20022;-71
2023/04/24 04:50:35;;;;;;;1.55;1.00;;;;;;;;;;4979359;28;20019;-72
2023/04/24 04:53:01;;;;;;;1.20;0.77;;;;;;;;;;4994000;28;20109;-72
2023/04/24 04:55:27;;;;;;;1.90;1.13;;;;;;;;;;4993807;28;20109;-72
2023/04/24 04:57:55;;;;;;;3.47;1.40;;;;;;;;;;4978610;28;20030;-72
2023/04/24 05:00:21;;;;;;;3.25;1.00;;;;;;;;;;4990618;28;20370;-72
2023/04/24 05:02:47;;;;;;;7.15;1.60;;;;;;;;;;4980787;28;20027;-72
2023/04/24 05:05:13;;;;;;;2.08;1.10;;;;;;;;;;4993130;28;20030;-72
2023/04/24 05:07:39;;;;;;;3.40;1.23;;;;;;;;;;4975225;28;20177;-72
2023/04/24 05:10:05;;;;;;;5.68;1.55;;;;;;;;;;4977724;28;20071;-72
2023/04/24 05:12:31;;;;;;;5.45;1.63;;;;;;;;;;4993779;28;20021;-72
2023/04/24 05:14:57;;;;;;;4.78;1.27;;;;;;;;;;4993508;28;20034;-72
2023/04/24 05:17:23;;;;;;;8.65;1.65;;;;;;;;;;4981965;28;20034;-72
2023/04/24 05:19:49;;;;;;;2.78;1.27;;;;;;;;;;4988900;28;20022;-72
2023/04/24 05:22:17;;;;;;;2.47;1.05;;;;;;;;;;4993164;28;20022;-72
2023/04/24 05:24:43;;;;;;;2.22;0.93;;;;;;;;;;4987583;28;20022;-72
2023/04/24 05:27:09;;;;;;;1.52;0.75;;;;;;;;;;4982765;28;20467;-71
2023/04/24 05:29:35;;;;;;;1.48;0.90;;;;;;;;;;4993352;28;20496;-73
2023/04/24 05:32:02;;;;;;;2.80;1.00;;;;;;;;;;4975931;28;20501;-73
2023/04/24 05:34:28;;;;;;;1.83;1.05;;;;;;;;;;4993175;28;20073;-73
2023/04/24 05:36:54;;;;;;;4.13;0.77;;;;;;;;;;4985375;28;20027;-73
2023/04/24 05:39:20;;;;;;;2.60;0.80;;;;;;;;;;4985463;28;20026;-73
2023/04/24 05:41:46;;;;;;;1.58;0.65;;;;;;;;;;4995594;28;20492;-72
2023/04/24 05:44:12;;;;;;;3.58;1.05;;;;;;;;;;4994022;28;20030;-71
2023/04/24 05:46:38;;;;;;;1.70;0.85;;;;;;;;;;4992722;28;20461;-72
2023/04/24 05:49:05;;;;;;;1.48;0.88;;;;;;;;;;4983925;28;20098;-72
2023/04/24 05:51:31;;;;;;;2.17;1.33;;;;;;;;;;4985828;28;20022;-72
2023/04/24 05:53:57;;;;;;;1.20;0.75;;;;;;;;;;4993514;28;20026;-73
2023/04/24 05:56:23;;;;;;;1.45;0.68;;;;;;;;;;4992691;28;20428;-72
2023/04/24 05:58:49;;;;;;;1.65;0.88;;;;;;;;;;4974762;28;20017;-72
2023/04/24 06:01:16;;;;;;;2.53;1.13;;;;;;;;;;4982610;28;20030;-72
2023/04/24 06:03:42;;;;;;;2.15;0.80;;;;;;;;;;4986748;28;20493;-72
2023/04/24 06:06:08;;;;;;;1.98;0.90;;;;;;;;;;4992357;28;20600;-72
2023/04/24 06:08:35;;;;;;;3.60;1.00;;;;;;;;;;5012358;23;20051;-74
2023/04/24 06:11:01;;;;;;;1.88;1.00;;;;;;;;;;4992069;28;20034;-72
2023/04/24 06:13:27;;;;;;;2.45;1.02;;;;;;;;;;4974594;28;20022;-74
2023/04/24 06:15:53;;;;;;;3.35;1.40;;;;;;;;;;4992273;28;20370;-74
2023/04/24 06:18:20;;;;;;;1.92;1.00;;;;;;;;;;4975384;28;20027;-73
2023/04/24 06:20:46;;;;;;;1.75;0.93;;;;;;;;;;4992305;28;20048;-72
2023/04/24 06:23:12;;;;;;;1.45;0.60;;;;;;;;;;4974537;28;20058;-76
2023/04/24 06:25:38;;;;;;;2.15;1.08;;;;;;;;;;4979254;28;20034;-75
2023/04/24 06:28:04;;;;;;;2.03;0.80;;;;;;;;;;4988412;28;20436;-75
2023/04/24 06:30:31;;;;;;;2.25;0.90;;;;;;;;;;4976895;28;20042;-75
2023/04/24 06:32:57;;;;;;;2.60;0.80;;;;;;;;;;4992171;28;20449;-75
2023/04/24 06:35:23;;;;;;;4.32;0.98;;;;;;;;;;4990147;28;20374;-74
2023/04/24 06:37:49;;;;;;;2.63;0.90;;;;;;;;;;4989796;28;20089;-74
2023/04/24 06:40:15;;;;;;;1.23;0.73;;;;;;;;;;4990745;28;20034;-74
2023/04/24 06:42:42;;;;;;;3.97;1.02;;;;;;;;;;4991928;28;20453;-74
2023/04/24 06:45:08;;;;;;;2.38;0.82;;;;;;;;;;4982919;28;20059;-74
2023/04/24 06:47:34;;;;;;;3.08;0.70;;;;;;;;;;4984984;28;20062;-74
2023/04/24 06:50:00;;;;;;;1.75;0.80;;;;;;;;;;4992527;28;20030;-74
2023/04/24 06:52:26;;;;;;;2.95;0.70;;;;;;;;;;4976045;28;20033;-72
2023/04/24 06:54:52;;;;;;;2.85;0.70;;;;;;;;;;4991702;28;20031;-73
2023/04/24 06:57:18;;;;;;;3.10;0.88;;;;;;;;;;4980961;28;20037;-71
2023/04/24 06:59:44;;;;;;;1.13;0.85;;;;;;;;;;4986195;28;20026;-72
2023/04/24 07:02:10;;;;;;;10.20;5.05;;;;;;;;;;4991634;28;20345;-71
2023/04/24 07:04:36;;;;;;;2.25;0.88;;;;;;;;;;4986838;28;20029;-69
2023/04/24 07:07:03;;;;;;;4.63;1.10;;;;;;;;;;4979820;28;20524;-70
2023/04/24 07:09:29;;;;;;;6.55;1.63;;;;;;;;;;4990062;28;20500;-70
2023/04/24 07:11:56;;;;;;;3.10;1.00;;;;;;;;;;4990919;28;20503;-70
2023/04/24 07:14:22;;;;;;;1.10;0.80;;;;;;;;;;4990780;28;20022;-68
2023/04/24 07:16:48;;;;;;;4.28;1.70;;;;;;;;;;4966633;28;20033;-71
2023/04/24 07:19:14;;;;;;;3.75;0.85;;;;;;;;;;4980771;28;20030;-68
2023/04/24 07:21:40;;;;;;;3.10;1.48;;;;;;;;;;4990899;28;20114;-69
2023/04/24 07:24:10;;;;;;;0.70;0.60;;;;;;;;;;4997747;28;20027;-74
2023/04/24 07:26:36;;;;;;;4.13;0.95;;;;;;;;;;4993855;28;20100;-73
2023/04/24 07:29:02;;;;;;;4.97;1.05;;;;;;;;;;4992660;28;20029;-74
2023/04/24 07:31:28;;;;;;;3.25;0.82;;;;;;;;;;4997949;28;20481;-75
2023/04/24 07:33:57;;;;;;;1.75;1.00;;;;;;;;;;4996598;28;20072;-74
2023/04/24 07:36:24;;;;;;;0.93;0.47;;;;;;;;;;4994442;28;20023;-73
2023/04/24 07:38:50;;;;;;;4.15;0.50;;;;;;;;;;4994216;28;20361;-73
2023/04/24 07:41:16;;;;;;;1.45;0.73;;;;;;;;;;4994612;28;20022;-73
2023/04/24 07:43:42;;;;;;;2.67;0.40;;;;;;;;;;4994592;28;20374;-74
2023/04/24 07:46:11;;;;;;;2.20;0.85;;;;;;;;;;4994074;28;20062;-73
2023/04/24 07:48:37;;;;;;;2.75;1.35;;;;;;;;;;4993688;28;20037;-73
2023/04/24 07:51:03;;;;;;;2.17;1.30;;;;;;;;;;4994245;28;20051;-74
2023/04/24 07:53:29;;;;;;;3.22;0.88;;;;;;;;;;4994523;28;20029;-73
2023/04/24 07:55:56;;;;;;;1.60;0.60;;;;;;;;;;4994027;28;20471;-73
2023/04/24 07:58:22;;;;;;;2.03;0.80;;;;;;;;;;4993760;28;20031;-73
2023/04/24 08:00:48;;;;;;;2.38;0.68;;;;;;;;;;4993804;28;20022;-73
2023/04/24 08:03:14;;;;;;;1.70;0.77;;;;;;;;;;4994147;28;20050;-74
2023/04/24 08:05:42;;;;;;;4.95;0.65;;;;;;;;;;4993829;28;20547;-73
2023/04/24 08:08:08;;;;;;;1.73;0.60;;;;;;;;;;4994088;28;20362;-74
2023/04/24 08:10:34;;;;;;;1.35;0.47;;;;;;;;;;4957820;28;1079316;-74
2023/04/24 08:13:00;;;;;;;2.50;0.70;;;;;;;;;;4995234;28;20026;-73
2023/04/24 08:15:27;;;;;;;2.13;0.80;;;;;;;;;;4994604;28;20124;-74
2023/04/24 08:17:53;;;;;;;3.47;0.88;;;;;;;;;;4994768;28;20026;-73
2023/04/24 08:20:19;;;;;;;2.63;1.00;;;;;;;;;;4994887;28;20057;-74
2023/04/24 08:22:47;;;;;;;1.45;0.50;;;;;;;;;;4995073;28;20049;-73
2023/04/24 08:25:13;;;;;;;2.53;0.70;;;;;;;;;;4994868;28;20026;-72
2023/04/24 08:27:39;;;;;;;1.15;0.60;;;;;;;;;;4994440;28;20055;-74
2023/04/24 08:30:05;;;;;;;2.47;0.80;;;;;;;;;;4994534;28;20061;-74
2023/04/24 08:32:32;;;;;;;1.77;0.50;;;;;;;;;;4994827;28;20047;-75
2023/04/24 08:34:58;;;;;;;1.48;0.60;;;;;;;;;;4976962;28;20027;-73
2023/04/24 08:37:25;;;;;;;5.57;0.85;;;;;;;;;;4994294;28;20033;-73
2023/04/24 08:39:51;;;;;;;2.15;0.98;;;;;;;;;;4994331;28;20030;-73
2023/04/24 08:42:20;;;;;;;1.05;0.57;;;;;;;;;;4994462;28;20035;-74
2023/04/24 08:44:47;;;;;;;5.38;1.00;;;;;;;;;;4994225;28;20023;-75
2023/04/24 08:47:13;;;;;;;4.72;1.00;;;;;;;;;;4993998;28;20030;-72
2023/04/24 08:49:39;;;;;;;2.05;0.70;;;;;;;;;;4994463;28;20022;-73
2023/04/24 08:52:06;;;;;;;1.70;0.65;;;;;;;;;;4994982;28;20050;-72
2023/04/24 08:54:32;;;;;;;1.48;0.40;;;;;;;;;;4994309;28;20028;-72
2023/04/24 08:57:01;;;;;;;1.13;0.80;;;;;;;;;;4994117;28;20034;-74
2023/04/24 08:59:27;;;;;;;3.40;0.68;;;;;;;;;;4993739;28;20032;-73
2023/04/24 09:01:53;;;;;;;1.58;0.40;;;;;;;;;;4994027;28;20053;-73
2023/04/24 09:04:21;;;;;;;8.32;1.27;;;;;;;;;;4994147;28;20023;-73
2023/04/24 09:06:48;;;;;;;2.95;0.95;;;;;;;;;;4993850;28;20026;-74
2023/04/24 09:09:16;;;;;;;6.72;0.98;;;;;;;;;;4993719;28;20126;-73
2023/04/24 09:11:42;;;;;;;2.50;0.77;;;;;;;;;;4993815;28;20050;-74
2023/04/24 09:14:09;;;;;;;1.30;0.77;;;;;;;;;;4993833;28;20444;-73
2023/04/24 09:16:35;;;;;;;1.02;0.60;;;;;;;;;;4993819;28;20443;-75
2023/04/24 09:19:01;;;;;;;2.58;0.28;;;;;;;;;;4976020;28;20026;-74
2023/04/24 09:21:32;;;;;;;2.55;0.60;;;;;;;;;;4976323;28;20052;-76
2023/04/24 09:24:00;;;;;;;2.00;0.60;;;;;;;;;;4993935;28;20022;-74
2023/04/24 09:26:26;;;;;;;0.70;0.50;;;;;;;;;;4993488;28;20026;-74
2023/04/24 09:28:54;;;;;;;3.88;0.73;;;;;;;;;;4993236;28;20436;-74
2023/04/24 09:31:21;;;;;;;2.85;0.52;;;;;;;;;;4993625;28;20022;-74
2023/04/24 09:34:00;;;;;;;1.00;0.60;;;;;;;;;;4993479;28;20026;-74
2023/04/24 09:36:37;;;;;;;1.30;0.52;;;;;;;;;;4993423;28;20027;-74
2023/04/24 09:39:05;;;;;;;1.30;0.65;;;;;;;;;;4992963;28;20026;-74
2023/04/24 09:41:32;;;;;;;3.33;0.65;;;;;;;;;;4994349;28;20026;-74
2023/04/24 09:44:02;;;;;;;3.70;0.70;;;;;;;;;;4993276;28;20057;-74
2023/04/24 09:46:31;;;;;;;2.50;0.50;;;;;;;;;;4993321;28;20108;-74
2023/04/24 09:48:58;;;;;;;3.75;0.90;;;;;;;;;;4993108;28;20045;-74
2023/04/24 09:51:42;;;;;;;3.28;0.80;;;;;;;;;;4992779;28;20388;-75
2023/04/24 09:54:20;;;;;;;4.90;0.85;;;;;;;;;;4993194;28;20053;-74
2023/04/24 09:56:47;;;;;;;3.88;0.70;;;;;;;;;;4993052;28;20018;-74
2023/04/24 09:59:14;;;;;;;5.22;0.88;;;;;;;;;;4992843;28;20030;-73
2023/04/24 10:01:42;;;;;;;2.28;0.77;;;;;;;;;;4992828;28;20724;-73
2023/04/24 10:04:16;;;;;;;7.57;0.63;;;;;;;;;;4993302;28;20037;-76
2023/04/24 10:06:43;;;;;;;1.52;0.50;;;;;;;;;;4992979;28;20022;-74
2023/04/24 10:09:11;;;;;;;1.08;0.60;;;;;;;;;;4992500;28;20488;-74
2023/04/24 10:11:37;;;;;;;2.10;0.65;;;;;;;;;;4992790;28;20106;-73
2023/04/24 10:14:04;;;;;;;4.00;0.77;;;;;;;;;;4992918;28;20479;-75
2023/04/24 10:16:30;;;;;;;1.42;0.55;;;;;;;;;;4992532;28;20033;-73
2023/04/24 10:18:57;;;;;;;1.52;0.57;;;;;;;;;;4992184;28;20069;-72
2023/04/24 10:21:23;;;;;;;3.40;0.88;;;;;;;;;;4992284;28;20076;-71
2023/04/24 10:23:50;;;;;;;1.92;0.50;;;;;;;;;;4992272;28;20028;-73
2023/04/24 10:26:17;;;;;;;1.50;0.40;;;;;;;;;;4992460;28;20042;-73
2023/04/24 10:28:47;;;;;;;1.45;0.40;;;;;;;;;;4974596;28;20027;-73
2023/04/24 10:31:13;;;;;;;1.95;0.47;;;;;;;;;;4992691;28;20078;-74
2023/04/24 10:33:41;;;;;;;6.28;1.05;;;;;;;;;;4974883;28;20048;-74
2023/04/24 10:36:08;;;;;;;1.08;0.73;;;;;;;;;;4992286;28;20106;-74
2023/04/24 10:38:34;;;;;;;1.65;0.52;;;;;;;;;;4974550;28;20065;-74
2023/04/24 10:41:19;;;;;;;2.72;0.55;;;;;;;;;;4992562;28;20036;-74
2023/04/24 10:43:45;;;;;;;1.60;0.40;;;;;;;;;;4975035;28;20040;-74
2023/04/24 10:46:11;;;;;;;1.83;0.50;;;;;;;;;;4992508;28;20519;-73
2023/04/24 10:48:43;;;;;;;1.08;0.50;;;;;;;;;;4992379;28;20113;-73
2023/04/24 10:51:12;;;;;;;1.48;0.60;;;;;;;;;;4999983;28;20025;-73
2023/04/24 10:53:38;;;;;;;4.03;0.88;;;;;;;;;;4992203;28;20026;-72
2023/04/24 10:56:13;;;;;;;2.72;0.80;;;;;;;;;;4992152;28;20022;-74
2023/04/24 10:58:44;;;;;;;5.95;0.90;;;;;;;;;;4992299;28;20054;-72
2023/04/24 11:01:10;;;;;;;;;;;;;;;;;;4994980;28;20026;-73
2023/04/24 11:03:36;;;;;;;1.92;0.65;;;;;;;;;;4993782;28;19906;-73
2023/04/24 11:06:06;;;;;;;0.82;0.70;;;;;;;;;;4992228;28;20026;-73
2023/04/24 11:08:36;;;;;;;1.40;0.57;;;;;;;;;;4991437;28;20031;-74
2023/04/24 11:11:04;;;;;;;2.75;0.75;;;;;;;;;;4992590;28;20026;-75
2023/04/24 11:13:49;;;;;;;7.05;0.90;;;;;;;;;;4992515;28;20045;-75
2023/04/24 11:16:15;;;;;;;3.80;0.85;;;;;;;;;;4992215;28;20022;-74
2023/04/24 11:18:50;;;;;;;1.90;0.60;;;;;;;;;;4992864;28;20034;-76
2023/04/24 11:21:19;;;;;;;2.80;0.70;;;;;;;;;;4992894;28;20034;-76
2023/04/24 11:23:46;;;;;;;1.00;0.47;;;;;;;;;;4992833;28;20031;-74
2023/04/24 11:26:14;;;;;;;2.78;1.05;;;;;;;;;;4992266;28;20517;-74
2023/04/24 11:28:50;;;;;;;1.27;0.60;;;;;;;;;;4991770;28;20033;-74
2023/04/24 11:31:35;;;;;;;1.17;0.60;;;;;;;;;;4991959;28;20525;-74
2023/04/24 11:34:11;;;;;;;0.50;0.40;;;;;;;;;;4992007;28;20457;-75
2023/04/24 11:36:38;;;;;;;3.55;0.80;;;;;;;;;;4991766;28;20023;-74
2023/04/24 11:39:04;;;;;;;2.45;0.75;;;;;;;;;;4991447;28;20037;-74
2023/04/24 11:41:30;;;;;;;1.15;0.40;;;;;;;;;;4991695;28;20069;-73
2023/04/24 11:43:56;;;;;;;1.35;0.40;;;;;;;;;;4991590;28;20022;-73
2023/04/24 11:46:23;;;;;;;2.72;0.60;;;;;;;;;;4991488;28;20550;-74
2023/04/24 11:48:49;;;;;;;2.45;0.70;;;;;;;;;;4991485;28;20501;-74
2023/04/24 11:51:15;;;;;;;1.48;0.50;;;;;;;;;;4991744;28;20080;-74
2023/04/24 11:53:41;;;;;;;2.63;0.60;;;;;;;;;;4991815;28;20125;-74
2023/04/24 11:56:09;;;;;;;1.80;0.55;;;;;;;;;;4991325;28;20026;-75
2023/04/24 11:58:45;;;;;;;2.38;0.57;;;;;;;;;;4991236;28;20846;-74
2023/04/24 12:01:11;;;;;;;3.40;0.60;;;;;;;;;;4991757;28;20034;-73
2023/04/24 12:03:37;;;;;;;0.65;0.40;;;;;;;;;;4991605;28;20029;-75
2023/04/24 12:06:07;;;;;;;1.80;0.43;;;;;;;;;;4991557;28;20022;-76
2023/04/24 12:08:34;;;;;;;1.05;0.40;;;;;;;;;;4990984;28;20036;-73
2023/04/24 12:11:03;;;;;;;4.60;0.80;;;;;;;;;;5028824;22;20509;-75
2023/04/24 12:13:29;;;;;;;1.33;0.52;;;;;;;;;;4974031;28;20485;-74
2023/04/24 12:15:57;;;;;;;1.02;0.60;;;;;;;;;;4976156;28;20014;-74
2023/04/24 12:18:23;;;;;;;0.80;0.40;;;;;;;;;;4995056;28;20030;-74
2023/04/24 12:20:49;;;;;;;1.92;0.40;;;;;;;;;;4995147;28;20081;-73
2023/04/24 12:23:15;;;;;;;4.00;0.60;;;;;;;;;;4995071;28;20054;-74
2023/04/24 12:25:41;;;;;;;1.08;0.47;;;;;;;;;;4994869;28;20448;-73
2023/04/24 12:28:11;;;;;;;0.85;0.75;;;;;;;;;;4994668;28;20049;-74
2023/04/24 12:30:45;;;;;;;4.10;0.63;;;;;;;;;;4994910;28;20022;-72
2023/04/24 12:33:11;;;;;;;0.93;0.50;;;;;;;;;;4995051;28;20030;-73
2023/04/24 12:35:37;;;;;;;2.20;0.60;;;;;;;;;;4995131;28;20053;-74
2023/04/24 12:38:12;;;;;;;2.03;0.70;;;;;;;;;;4986783;28;20117;-73
2023/04/24 12:40:38;;;;;;;3.95;0.60;;;;;;;;;;4997295;28;20039;-73
2023/04/24 12:43:20;;;;;;;3.10;1.00;;;;;;;;;;4976624;28;20508;-74
2023/04/24 12:45:48;;;;;;;1.13;0.88;;;;;;;;;;4994638;28;20412;-74
2023/04/24 12:48:14;;;;;;;1.73;0.82;;;;;;;;;;4993931;28;20026;-73
2023/04/24 12:50:40;;;;;;;2.38;0.70;;;;;;;;;;4994402;28;20019;-73
2023/04/24 12:53:07;;;;;;;3.17;0.80;;;;;;;;;;4976554;28;20073;-73
2023/04/24 12:55:33;;;;;;;2.90;0.88;;;;;;;;;;4994234;28;20030;-74
2023/04/24 12:57:59;;;;;;;1.15;0.93;;;;;;;;;;4976163;28;20054;-73
2023/04/24 13:00:25;;;;;;;2.28;0.90;;;;;;;;;;4993845;28;20477;-72
2023/04/24 13:02:51;;;;;;;1.58;0.60;;;;;;;;;;4994041;28;20030;-74
2023/04/24 13:05:17;;;;;;;6.78;0.77;;;;;;;;;;4994184;28;20076;-74
2023/04/24 13:07:43;;;;;;;2.08;0.80;;;;;;;;;;4993612;28;20030;-73
2023/04/24 13:10:10;;;;;;;1.33;0.50;;;;;;;;;;4993513;28;20030;-74
2023/04/24 13:12:36;;;;;;;3.97;0.70;;;;;;;;;;4993885;28;20014;-73
2023/04/24 13:15:02;;;;;;;1.80;0.90;;;;;;;;;;4994130;28;20018;-74
2023/04/24 13:17:29;;;;;;;3.50;0.93;;;;;;;;;;4993528;28;20500;-72
2023/04/24 13:19:55;;;;;;;3.33;1.17;;;;;;;;;;4993824;28;20512;-73
2023/04/24 13:22:21;;;;;;;4.13;0.95;;;;;;;;;;4994051;28;20049;-75
2023/04/24 13:24:51;;;;;;;2.03;0.80;;;;;;;;;;4993861;28;20498;-75
2023/04/24 13:27:17;;;;;;;2.85;0.80;;;;;;;;;;4974986;28;20033;-73
2023/04/24 13:29:43;;;;;;;2.28;0.88;;;;;;;;;;4993821;28;20076;-73
2023/04/24 13:32:10;;;;;;;0.82;0.63;;;;;;;;;;4993624;28;20027;-73
2023/04/24 13:34:36;;;;;;;1.08;0.95;;;;;;;;;;4993480;28;20022;-72
2023/04/24 13:37:03;;;;;;;5.32;0.90;;;;;;;;;;4992868;28;20022;-73
2023/04/24 13:39:29;;;;;;;3.10;0.98;;;;;;;;;;4993562;28;20030;-74
2023/04/24 13:41:55;;;;;;;1.08;0.60;;;;;;;;;;4993586;28;20026;-73
2023/04/24 13:44:22;;;;;;;2.60;0.88;;;;;;;;;;4993477;28;20076;-73
2023/04/24 13:46:49;;;;;;;6.78;0.70;;;;;;;;;;4993154;28;20518;-75
2023/04/24 13:49:16;;;;;;;2.90;0.90;;;;;;;;;;4993052;28;20023;-74
2023/04/24 13:51:42;;;;;;;1.00;0.80;;;;;;;;;;4993067;28;20094;-74
2023/04/24 13:54:08;;;;;;;2.03;0.60;;;;;;;;;;4993119;28;20045;-74
2023/04/24 13:56:35;;;;;;;4.15;0.88;;;;;;;;;;4993218;28;20027;-75
2023/04/24 13:59:01;;;;;;;7.40;1.38;;;;;;;;;;4992832;28;20030;-73
2023/04/24 14:01:27;;;;;;;3.15;0.70;;;;;;;;;;4992730;28;20027;-72
2023/04/24 14:03:53;;;;;;;1.58;0.90;;;;;;;;;;4992746;28;20124;-71
2023/04/24 14:06:19;;;;;;;1.65;1.00;;;;;;;;;;4993063;28;20397;-73
2023/04/24 14:08:46;;;;;;;2.15;1.00;;;;;;;;;;4992451;28;20134;-70
2023/04/24 14:11:12;;;;;;;0.85;0.63;;;;;;;;;;4992700;28;20026;-72
2023/04/24 14:13:38;;;;;;;3.63;1.13;;;;;;;;;;4992971;28;20539;-73
2023/04/24 14:16:04;;;;;;;4.15;1.10;;;;;;;;;;4992415;28;20100;-74
2023/04/24 14:18:31;;;;;;;1.33;0.70;;;;;;;;;;4992065;28;20026;-72
2023/04/24 14:20:57;;;;;;;2.05;0.93;;;;;;;;;;4992328;28;20076;-72
2023/04/24 14:23:23;;;;;;;3.45;0.68;;;;;;;;;;4992770;28;20057;-74
2023/04/24 14:25:51;;;;;;;2.08;0.63;;;;;;;;;;4991589;28;20420;-72
2023/04/24 14:28:18;;;;;;;2.38;0.70;;;;;;;;;;4991882;28;20023;-75
2023/04/24 14:30:44;;;;;;;1.88;1.02;;;;;;;;;;4991230;28;20017;-73
2023/04/24 14:33:10;;;;;;;4.75;1.33;;;;;;;;;;4991660;28;20085;-73
2023/04/24 14:35:36;;;;;;;2.50;1.10;;;;;;;;;;4973275;28;20057;-74
2023/04/24 14:38:02;;;;;;;3.17;1.00;;;;;;;;;;4974100;28;20027;-73
2023/04/24 14:40:29;;;;;;;1.80;1.00;;;;;;;;;;4991849;28;20037;-73